sensor_id;sensor_type;location;lat;lon;timestamp;P1;durP1;ratioP1;P2;durP2;ratioP2
12181;SDS011;6154;51.550;12.138;2023-05-01T00:00:56;4.80;;;3.05;;
12181;SDS011;6154;51.550;12.138;2023-05-01T00:03:26;5.15;;;3.08;;
12181;SDS011;6154;51.550;12.138;2023-05-01T00:05:58;6.18;;;3.40;;
12181;SDS011;6154;51.550;12.138;2023-05-01T00:08:27;5.00;;;3.17;;
12181;SDS011;6154;51.550;12.138;2023-05-01T00:10:56;3.70;;;2.80;;
12181;SDS011;6154;51.550;12.138;2023-05-01T00:13:29;6.40;;;2.95;;
12181;SDS011;6154;51.550;12.138;2023-05-01T00:15:57;3.58;;;3.00;;
12181;SDS011;6154;51.550;12.138;2023-05-01T00:18:25;5.70;;;3.40;;
12181;SDS011;6154;51.550;12.138;2023-05-01T00:20:56;10.20;;;4.30;;
12181;SDS011;6154;51.550;12.138;2023-05-01T00:23:24;7.60;;;3.90;;
12181;SDS011;6154;51.550;12.138;2023-05-01T00:25:54;8.77;;;3.33;;
12181;SDS011;6154;51.550;12.138;2023-05-01T00:28:24;4.90;;;3.45;;
12181;SDS011;6154;51.550;12.138;2023-05-01T00:30:52;6.70;;;3.45;;
12181;SDS011;6154;51.550;12.138;2023-05-01T00:33:20;5.50;;;3.58;;
12181;SDS011;6154;51.550;12.138;2023-05-01T00:35:48;6.80;;;2.97;;
12181;SDS011;6154;51.550;12.138;2023-05-01T00:38:17;4.87;;;2.92;;
12181;SDS011;6154;51.550;12.138;2023-05-01T00:40:45;5.25;;;2.53;;
12181;SDS011;6154;51.550;12.138;2023-05-01T00:43:14;6.47;;;3.42;;
12181;SDS011;6154;51.550;12.138;2023-05-01T00:45:43;4.75;;;3.05;;
12181;SDS011;6154;51.550;12.138;2023-05-01T00:48:12;7.15;;;3.12;;
12181;SDS011;6154;51.550;12.138;2023-05-01T00:50:42;4.93;;;2.85;;
12181;SDS011;6154;51.550;12.138;2023-05-01T00:53:10;5.07;;;2.75;;
12181;SDS011;6154;51.550;12.138;2023-05-01T00:55:39;7.12;;;3.50;;
12181;SDS011;6154;51.550;12.138;2023-05-01T00:58:09;6.03;;;3.55;;
12181;SDS011;6154;51.550;12.138;2023-05-01T01:00:38;5.22;;;3.03;;
12181;SDS011;6154;51.550;12.138;2023-05-01T01:03:07;5.47;;;2.95;;
12181;SDS011;6154;51.550;12.138;2023-05-01T01:05:37;6.85;;;3.08;;
12181;SDS011;6154;51.550;12.138;2023-05-01T01:08:10;7.35;;;3.40;;
12181;SDS011;6154;51.550;12.138;2023-05-01T01:10:51;7.00;;;3.62;;
12181;SDS011;6154;51.550;12.138;2023-05-01T01:13:26;10.65;;;3.47;;
12181;SDS011;6154;51.550;12.138;2023-05-01T01:15:58;4.57;;;2.92;;
12181;SDS011;6154;51.550;12.138;2023-05-01T01:18:39;3.67;;;2.80;;
12181;SDS011;6154;51.550;12.138;2023-05-01T01:21:11;6.05;;;3.10;;
12181;SDS011;6154;51.550;12.138;2023-05-01T01:29:50;8.20;;;3.40;;
12181;SDS011;6154;51.550;12.138;2023-05-01T01:32:45;4.43;;;2.62;;
12181;SDS011;6154;51.550;12.138;2023-05-01T01:35:45;7.72;;;3.40;;
12181;SDS011;6154;51.550;12.138;2023-05-01T01:38:21;5.93;;;3.08;;
12181;SDS011;6154;51.550;12.138;2023-05-01T01:40:56;4.00;;;2.62;;
12181;SDS011;6154;51.550;12.138;2023-05-01T01:43:28;4.30;;;2.70;;
12181;SDS011;6154;51.550;12.138;2023-05-01T01:46:05;6.10;;;2.55;;
12181;SDS011;6154;51.550;12.138;2023-05-01T01:48:36;5.10;;;2.85;;
12181;SDS011;6154;51.550;12.138;2023-05-01T01:51:09;6.47;;;2.60;;
12181;SDS011;6154;51.550;12.138;2023-05-01T01:53:43;5.05;;;2.47;;
12181;SDS011;6154;51.550;12.138;2023-05-01T01:56:16;3.10;;;2.60;;
12181;SDS011;6154;51.550;12.138;2023-05-01T01:58:47;4.03;;;2.85;;
12181;SDS011;6154;51.550;12.138;2023-05-01T02:01:18;7.62;;;2.45;;
12181;SDS011;6154;51.550;12.138;2023-05-01T02:03:49;4.95;;;2.30;;
12181;SDS011;6154;51.550;12.138;2023-05-01T02:06:19;5.40;;;2.25;;
12181;SDS011;6154;51.550;12.138;2023-05-01T02:08:50;6.03;;;2.47;;
12181;SDS011;6154;51.550;12.138;2023-05-01T02:11:19;6.22;;;2.55;;
12181;SDS011;6154;51.550;12.138;2023-05-01T02:13:48;5.70;;;2.87;;
12181;SDS011;6154;51.550;12.138;2023-05-01T02:16:18;4.37;;;2.72;;
12181;SDS011;6154;51.550;12.138;2023-05-01T02:18:48;3.15;;;2.05;;
12181;SDS011;6154;51.550;12.138;2023-05-01T02:21:20;9.02;;;3.10;;
12181;SDS011;6154;51.550;12.138;2023-05-01T02:23:49;5.22;;;2.53;;
12181;SDS011;6154;51.550;12.138;2023-05-01T02:26:17;5.15;;;2.58;;
12181;SDS011;6154;51.550;12.138;2023-05-01T02:28:50;3.40;;;2.10;;
12181;SDS011;6154;51.550;12.138;2023-05-01T02:31:19;4.57;;;3.17;;
12181;SDS011;6154;51.550;12.138;2023-05-01T02:33:47;2.95;;;2.62;;
12181;SDS011;6154;51.550;12.138;2023-05-01T02:36:16;4.32;;;2.92;;
12181;SDS011;6154;51.550;12.138;2023-05-01T02:38:45;7.03;;;2.60;;
12181;SDS011;6154;51.550;12.138;2023-05-01T02:41:16;5.07;;;2.30;;
12181;SDS011;6154;51.550;12.138;2023-05-01T02:43:49;4.50;;;2.67;;
12181;SDS011;6154;51.550;12.138;2023-05-01T02:46:23;4.85;;;2.40;;
12181;SDS011;6154;51.550;12.138;2023-05-01T02:48:53;3.62;;;2.40;;
12181;SDS011;6154;51.550;12.138;2023-05-01T02:51:24;5.07;;;2.55;;
12181;SDS011;6154;51.550;12.138;2023-05-01T02:53:55;7.97;;;2.17;;
12181;SDS011;6154;51.550;12.138;2023-05-01T02:56:25;2.53;;;1.95;;
12181;SDS011;6154;51.550;12.138;2023-05-01T02:58:53;4.87;;;1.90;;
12181;SDS011;6154;51.550;12.138;2023-05-01T03:01:22;2.55;;;2.05;;
12181;SDS011;6154;51.550;12.138;2023-05-01T03:03:51;4.37;;;2.15;;
12181;SDS011;6154;51.550;12.138;2023-05-01T03:06:19;4.78;;;1.92;;
12181;SDS011;6154;51.550;12.138;2023-05-01T03:08:47;3.20;;;2.00;;
12181;SDS011;6154;51.550;12.138;2023-05-01T03:11:16;1.70;;;1.55;;
12181;SDS011;6154;51.550;12.138;2023-05-01T03:13:44;4.05;;;2.10;;
12181;SDS011;6154;51.550;12.138;2023-05-01T03:16:13;3.92;;;1.77;;
12181;SDS011;6154;51.550;12.138;2023-05-01T03:18:41;3.30;;;1.95;;
12181;SDS011;6154;51.550;12.138;2023-05-01T03:21:09;5.03;;;2.08;;
12181;SDS011;6154;51.550;12.138;2023-05-01T03:23:38;4.07;;;2.25;;
12181;SDS011;6154;51.550;12.138;2023-05-01T03:26:06;3.42;;;2.30;;
12181;SDS011;6154;51.550;12.138;2023-05-01T03:28:36;7.00;;;2.33;;
12181;SDS011;6154;51.550;12.138;2023-05-01T03:31:05;2.83;;;2.12;;
12181;SDS011;6154;51.550;12.138;2023-05-01T03:33:33;3.80;;;1.92;;
12181;SDS011;6154;51.550;12.138;2023-05-01T03:36:02;3.90;;;1.87;;
12181;SDS011;6154;51.550;12.138;2023-05-01T03:38:32;3.50;;;1.73;;
12181;SDS011;6154;51.550;12.138;2023-05-01T03:41:02;6.12;;;2.22;;
12181;SDS011;6154;51.550;12.138;2023-05-01T03:43:33;3.25;;;2.62;;
12181;SDS011;6154;51.550;12.138;2023-05-01T03:46:03;3.40;;;2.10;;
12181;SDS011;6154;51.550;12.138;2023-05-01T03:48:32;8.07;;;2.30;;
12181;SDS011;6154;51.550;12.138;2023-05-01T03:51:00;3.83;;;1.95;;
12181;SDS011;6154;51.550;12.138;2023-05-01T03:53:29;5.55;;;1.77;;
12181;SDS011;6154;51.550;12.138;2023-05-01T03:55:58;2.67;;;1.77;;
12181;SDS011;6154;51.550;12.138;2023-05-01T03:58:26;4.43;;;2.17;;
12181;SDS011;6154;51.550;12.138;2023-05-01T04:00:55;5.20;;;2.53;;
12181;SDS011;6154;51.550;12.138;2023-05-01T04:03:28;3.90;;;2.00;;
12181;SDS011;6154;51.550;12.138;2023-05-01T04:05:56;3.65;;;1.87;;
12181;SDS011;6154;51.550;12.138;2023-05-01T04:08:25;3.62;;;2.08;;
12181;SDS011;6154;51.550;12.138;2023-05-01T04:10:54;3.97;;;1.98;;
12181;SDS011;6154;51.550;12.138;2023-05-01T04:13:22;4.12;;;2.20;;
12181;SDS011;6154;51.550;12.138;2023-05-01T04:15:50;3.58;;;2.17;;
12181;SDS011;6154;51.550;12.138;2023-05-01T04:18:22;4.82;;;1.95;;
12181;SDS011;6154;51.550;12.138;2023-05-01T04:20:54;3.78;;;1.75;;
12181;SDS011;6154;51.550;12.138;2023-05-01T04:23:22;4.32;;;2.25;;
12181;SDS011;6154;51.550;12.138;2023-05-01T04:25:52;4.47;;;1.80;;
12181;SDS011;6154;51.550;12.138;2023-05-01T04:28:20;4.40;;;2.50;;
12181;SDS011;6154;51.550;12.138;2023-05-01T04:30:48;6.80;;;2.62;;
12181;SDS011;6154;51.550;12.138;2023-05-01T04:33:17;3.58;;;2.62;;
12181;SDS011;6154;51.550;12.138;2023-05-01T04:35:45;7.03;;;2.70;;
12181;SDS011;6154;51.550;12.138;2023-05-01T04:38:16;6.05;;;2.90;;
12181;SDS011;6154;51.550;12.138;2023-05-01T04:40:45;3.45;;;2.55;;
12181;SDS011;6154;51.550;12.138;2023-05-01T04:43:13;3.85;;;2.22;;
12181;SDS011;6154;51.550;12.138;2023-05-01T04:45:42;4.80;;;2.00;;
12181;SDS011;6154;51.550;12.138;2023-05-01T04:48:11;11.65;;;3.03;;
12181;SDS011;6154;51.550;12.138;2023-05-01T04:50:39;3.58;;;2.17;;
12181;SDS011;6154;51.550;12.138;2023-05-01T04:53:07;6.00;;;2.72;;
12181;SDS011;6154;51.550;12.138;2023-05-01T04:55:37;5.87;;;3.15;;
12181;SDS011;6154;51.550;12.138;2023-05-01T04:58:05;5.57;;;2.08;;
12181;SDS011;6154;51.550;12.138;2023-05-01T05:00:34;6.62;;;2.78;;
12181;SDS011;6154;51.550;12.138;2023-05-01T05:03:04;2.72;;;2.25;;
12181;SDS011;6154;51.550;12.138;2023-05-01T05:05:32;4.55;;;2.12;;
12181;SDS011;6154;51.550;12.138;2023-05-01T05:08:01;4.50;;;2.35;;
12181;SDS011;6154;51.550;12.138;2023-05-01T05:10:30;4.00;;;2.55;;
12181;SDS011;6154;51.550;12.138;2023-05-01T05:13:00;6.43;;;3.22;;
12181;SDS011;6154;51.550;12.138;2023-05-01T05:15:29;6.82;;;3.05;;
12181;SDS011;6154;51.550;12.138;2023-05-01T05:17:57;5.00;;;2.70;;
12181;SDS011;6154;51.550;12.138;2023-05-01T05:20:26;4.78;;;3.28;;
12181;SDS011;6154;51.550;12.138;2023-05-01T05:22:55;5.85;;;3.03;;
12181;SDS011;6154;51.550;12.138;2023-05-01T05:25:23;5.47;;;3.17;;
12181;SDS011;6154;51.550;12.138;2023-05-01T05:27:51;7.35;;;3.30;;
12181;SDS011;6154;51.550;12.138;2023-05-01T05:30:21;5.15;;;3.33;;
12181;SDS011;6154;51.550;12.138;2023-05-01T05:32:49;8.70;;;4.50;;
12181;SDS011;6154;51.550;12.138;2023-05-01T05:35:19;9.00;;;3.92;;
12181;SDS011;6154;51.550;12.138;2023-05-01T05:37:47;6.03;;;3.95;;
12181;SDS011;6154;51.550;12.138;2023-05-01T05:40:16;9.77;;;4.78;;
12181;SDS011;6154;51.550;12.138;2023-05-01T05:42:45;5.37;;;4.05;;
12181;SDS011;6154;51.550;12.138;2023-05-01T05:45:13;7.43;;;4.03;;
12181;SDS011;6154;51.550;12.138;2023-05-01T05:47:44;7.20;;;4.07;;
12181;SDS011;6154;51.550;12.138;2023-05-01T05:50:12;11.70;;;4.45;;
12181;SDS011;6154;51.550;12.138;2023-05-01T05:52:42;6.37;;;4.82;;
12181;SDS011;6154;51.550;12.138;2023-05-01T05:55:10;9.57;;;4.85;;
12181;SDS011;6154;51.550;12.138;2023-05-01T05:57:39;7.62;;;4.10;;
12181;SDS011;6154;51.550;12.138;2023-05-01T06:00:09;8.13;;;5.22;;
12181;SDS011;6154;51.550;12.138;2023-05-01T06:02:41;9.93;;;5.20;;
12181;SDS011;6154;51.550;12.138;2023-05-01T06:05:10;11.48;;;5.87;;
12181;SDS011;6154;51.550;12.138;2023-05-01T06:07:40;13.88;;;6.95;;
12181;SDS011;6154;51.550;12.138;2023-05-01T06:10:09;12.82;;;6.90;;
12181;SDS011;6154;51.550;12.138;2023-05-01T06:12:38;15.30;;;8.50;;
12181;SDS011;6154;51.550;12.138;2023-05-01T06:15:15;14.60;;;9.07;;
12181;SDS011;6154;51.550;12.138;2023-05-01T06:17:44;16.55;;;9.80;;
12181;SDS011;6154;51.550;12.138;2023-05-01T06:20:14;16.48;;;10.05;;
12181;SDS011;6154;51.550;12.138;2023-05-01T06:22:43;19.73;;;10.00;;
12181;SDS011;6154;51.550;12.138;2023-05-01T06:25:12;19.05;;;9.65;;
12181;SDS011;6154;51.550;12.138;2023-05-01T06:27:41;14.27;;;9.30;;
12181;SDS011;6154;51.550;12.138;2023-05-01T06:30:10;15.85;;;10.27;;
12181;SDS011;6154;51.550;12.138;2023-05-01T06:32:39;18.02;;;11.02;;
12181;SDS011;6154;51.550;12.138;2023-05-01T06:35:09;19.12;;;10.00;;
12181;SDS011;6154;51.550;12.138;2023-05-01T06:37:39;14.05;;;10.52;;
12181;SDS011;6154;51.550;12.138;2023-05-01T06:40:07;19.77;;;11.15;;
12181;SDS011;6154;51.550;12.138;2023-05-01T06:42:36;19.37;;;11.98;;
12181;SDS011;6154;51.550;12.138;2023-05-01T06:45:05;22.75;;;10.75;;
12181;SDS011;6154;51.550;12.138;2023-05-01T06:47:34;19.73;;;11.10;;
12181;SDS011;6154;51.550;12.138;2023-05-01T06:50:03;18.60;;;10.82;;
12181;SDS011;6154;51.550;12.138;2023-05-01T06:52:33;19.27;;;11.15;;
12181;SDS011;6154;51.550;12.138;2023-05-01T06:55:02;17.62;;;11.07;;
12181;SDS011;6154;51.550;12.138;2023-05-01T06:57:30;17.58;;;11.00;;
12181;SDS011;6154;51.550;12.138;2023-05-01T06:59:59;20.80;;;12.27;;
12181;SDS011;6154;51.550;12.138;2023-05-01T07:02:28;15.82;;;10.95;;
12181;SDS011;6154;51.550;12.138;2023-05-01T07:04:56;19.67;;;11.75;;
12181;SDS011;6154;51.550;12.138;2023-05-01T07:07:25;20.88;;;11.50;;
12181;SDS011;6154;51.550;12.138;2023-05-01T07:09:53;17.15;;;11.05;;
12181;SDS011;6154;51.550;12.138;2023-05-01T07:12:23;18.55;;;10.95;;
12181;SDS011;6154;51.550;12.138;2023-05-01T07:14:51;17.30;;;10.75;;
12181;SDS011;6154;51.550;12.138;2023-05-01T07:17:19;17.35;;;11.35;;
12181;SDS011;6154;51.550;12.138;2023-05-01T07:19:48;18.37;;;10.88;;
12181;SDS011;6154;51.550;12.138;2023-05-01T07:22:16;16.98;;;11.05;;
12181;SDS011;6154;51.550;12.138;2023-05-01T07:24:44;18.58;;;11.50;;
12181;SDS011;6154;51.550;12.138;2023-05-01T07:27:12;20.83;;;11.68;;
12181;SDS011;6154;51.550;12.138;2023-05-01T07:29:42;17.95;;;11.20;;
12181;SDS011;6154;51.550;12.138;2023-05-01T07:32:10;18.90;;;11.82;;
12181;SDS011;6154;51.550;12.138;2023-05-01T07:34:39;17.65;;;10.93;;
12181;SDS011;6154;51.550;12.138;2023-05-01T07:37:07;15.82;;;10.75;;
12181;SDS011;6154;51.550;12.138;2023-05-01T07:39:35;19.60;;;11.20;;
12181;SDS011;6154;51.550;12.138;2023-05-01T07:42:04;14.95;;;10.80;;
12181;SDS011;6154;51.550;12.138;2023-05-01T07:44:32;20.08;;;11.20;;
12181;SDS011;6154;51.550;12.138;2023-05-01T07:47:05;14.68;;;10.75;;
12181;SDS011;6154;51.550;12.138;2023-05-01T07:49:34;19.40;;;11.63;;
12181;SDS011;6154;51.550;12.138;2023-05-01T07:52:04;17.87;;;10.77;;
12181;SDS011;6154;51.550;12.138;2023-05-01T07:54:33;17.52;;;10.82;;
12181;SDS011;6154;51.550;12.138;2023-05-01T07:57:01;17.15;;;11.52;;
12181;SDS011;6154;51.550;12.138;2023-05-01T07:59:30;21.77;;;11.32;;
12181;SDS011;6154;51.550;12.138;2023-05-01T08:01:58;18.27;;;10.98;;
12181;SDS011;6154;51.550;12.138;2023-05-01T08:04:28;15.85;;;11.32;;
12181;SDS011;6154;51.550;12.138;2023-05-01T08:06:57;16.52;;;10.77;;
12181;SDS011;6154;51.550;12.138;2023-05-01T08:09:25;19.92;;;10.98;;
12181;SDS011;6154;51.550;12.138;2023-05-01T08:11:53;17.92;;;11.30;;
12181;SDS011;6154;51.550;12.138;2023-05-01T08:14:21;17.90;;;10.70;;
12181;SDS011;6154;51.550;12.138;2023-05-01T08:16:50;19.60;;;11.63;;
12181;SDS011;6154;51.550;12.138;2023-05-01T08:19:21;14.00;;;10.52;;
12181;SDS011;6154;51.550;12.138;2023-05-01T08:21:51;14.63;;;9.85;;
12181;SDS011;6154;51.550;12.138;2023-05-01T08:24:19;13.93;;;10.15;;
12181;SDS011;6154;51.550;12.138;2023-05-01T08:26:47;17.80;;;10.77;;
12181;SDS011;6154;51.550;12.138;2023-05-01T08:29:16;14.70;;;10.32;;
12181;SDS011;6154;51.550;12.138;2023-05-01T08:31:44;14.02;;;9.48;;
12181;SDS011;6154;51.550;12.138;2023-05-01T08:34:12;15.73;;;9.60;;
12181;SDS011;6154;51.550;12.138;2023-05-01T08:36:40;13.65;;;9.80;;
12181;SDS011;6154;51.550;12.138;2023-05-01T08:39:10;15.60;;;10.82;;
12181;SDS011;6154;51.550;12.138;2023-05-01T08:41:38;15.18;;;10.95;;
12181;SDS011;6154;51.550;12.138;2023-05-01T08:44:07;15.98;;;9.88;;
12181;SDS011;6154;51.550;12.138;2023-05-01T08:46:45;14.87;;;9.85;;
12181;SDS011;6154;51.550;12.138;2023-05-01T08:49:16;13.40;;;8.77;;
12181;SDS011;6154;51.550;12.138;2023-05-01T08:51:45;16.33;;;9.15;;
12181;SDS011;6154;51.550;12.138;2023-05-01T08:54:18;12.75;;;8.48;;
12181;SDS011;6154;51.550;12.138;2023-05-01T08:56:47;13.68;;;9.05;;
12181;SDS011;6154;51.550;12.138;2023-05-01T08:59:18;10.23;;;8.13;;
12181;SDS011;6154;51.550;12.138;2023-05-01T09:01:48;10.93;;;8.80;;
12181;SDS011;6154;51.550;12.138;2023-05-01T09:04:18;16.25;;;8.95;;
12181;SDS011;6154;51.550;12.138;2023-05-01T09:06:47;13.30;;;8.73;;
12181;SDS011;6154;51.550;12.138;2023-05-01T09:09:18;12.88;;;8.88;;
12181;SDS011;6154;51.550;12.138;2023-05-01T09:11:46;11.10;;;8.43;;
12181;SDS011;6154;51.550;12.138;2023-05-01T09:14:14;12.35;;;7.53;;
12181;SDS011;6154;51.550;12.138;2023-05-01T09:16:42;10.85;;;7.90;;
12181;SDS011;6154;51.550;12.138;2023-05-01T09:19:11;13.38;;;7.93;;
12181;SDS011;6154;51.550;12.138;2023-05-01T09:21:39;17.98;;;8.82;;
12181;SDS011;6154;51.550;12.138;2023-05-01T09:24:07;9.55;;;7.00;;
12181;SDS011;6154;51.550;12.138;2023-05-01T09:26:39;10.85;;;7.15;;
12181;SDS011;6154;51.550;12.138;2023-05-01T09:29:08;13.02;;;7.68;;
12181;SDS011;6154;51.550;12.138;2023-05-01T09:31:37;8.77;;;6.40;;
12181;SDS011;6154;51.550;12.138;2023-05-01T09:34:05;10.30;;;7.07;;
12181;SDS011;6154;51.550;12.138;2023-05-01T09:36:34;10.60;;;7.00;;
12181;SDS011;6154;51.550;12.138;2023-05-01T09:39:03;11.68;;;7.43;;
12181;SDS011;6154;51.550;12.138;2023-05-01T09:41:31;8.52;;;6.57;;
12181;SDS011;6154;51.550;12.138;2023-05-01T09:44:00;10.52;;;6.57;;
12181;SDS011;6154;51.550;12.138;2023-05-01T09:46:30;9.55;;;6.18;;
12181;SDS011;6154;51.550;12.138;2023-05-01T09:49:08;9.35;;;6.35;;
12181;SDS011;6154;51.550;12.138;2023-05-01T09:51:36;8.77;;;5.87;;
12181;SDS011;6154;51.550;12.138;2023-05-01T09:54:05;8.68;;;6.60;;
12181;SDS011;6154;51.550;12.138;2023-05-01T09:56:46;9.52;;;6.72;;
12181;SDS011;6154;51.550;12.138;2023-05-01T09:59:17;10.05;;;5.93;;
12181;SDS011;6154;51.550;12.138;2023-05-01T10:01:47;8.20;;;5.97;;
12181;SDS011;6154;51.550;12.138;2023-05-01T10:04:17;9.15;;;6.05;;
12181;SDS011;6154;51.550;12.138;2023-05-01T10:06:56;8.15;;;5.65;;
12181;SDS011;6154;51.550;12.138;2023-05-01T10:09:26;7.57;;;5.18;;
12181;SDS011;6154;51.550;12.138;2023-05-01T10:11:55;8.90;;;6.22;;
12181;SDS011;6154;51.550;12.138;2023-05-01T10:14:27;8.88;;;5.65;;
12181;SDS011;6154;51.550;12.138;2023-05-01T10:16:56;9.95;;;5.22;;
12181;SDS011;6154;51.550;12.138;2023-05-01T10:19:25;7.93;;;5.05;;
12181;SDS011;6154;51.550;12.138;2023-05-01T10:21:53;6.90;;;4.37;;
12181;SDS011;6154;51.550;12.138;2023-05-01T10:24:21;6.97;;;4.62;;
12181;SDS011;6154;51.550;12.138;2023-05-01T10:26:50;9.27;;;4.90;;
12181;SDS011;6154;51.550;12.138;2023-05-01T10:29:20;9.68;;;4.78;;
12181;SDS011;6154;51.550;12.138;2023-05-01T10:31:51;5.75;;;4.15;;
12181;SDS011;6154;51.550;12.138;2023-05-01T10:34:20;10.15;;;4.30;;
12181;SDS011;6154;51.550;12.138;2023-05-01T10:36:54;6.75;;;3.92;;
12181;SDS011;6154;51.550;12.138;2023-05-01T10:39:30;7.25;;;4.10;;
12181;SDS011;6154;51.550;12.138;2023-05-01T10:42:04;5.87;;;4.05;;
12181;SDS011;6154;51.550;12.138;2023-05-01T10:44:36;4.80;;;3.67;;
12181;SDS011;6154;51.550;12.138;2023-05-01T10:50:14;7.12;;;3.80;;
12181;SDS011;6154;51.550;12.138;2023-05-01T10:55:44;7.43;;;3.92;;
12181;SDS011;6154;51.550;12.138;2023-05-01T11:01:27;5.78;;;3.65;;
12181;SDS011;6154;51.550;12.138;2023-05-01T11:04:02;9.93;;;4.25;;
12181;SDS011;6154;51.550;12.138;2023-05-01T11:06:33;7.07;;;3.78;;
12181;SDS011;6154;51.550;12.138;2023-05-01T11:12:07;5.25;;;3.70;;
12181;SDS011;6154;51.550;12.138;2023-05-01T11:17:45;8.38;;;3.95;;
12181;SDS011;6154;51.550;12.138;2023-05-01T11:23:15;5.32;;;3.55;;
12181;SDS011;6154;51.550;12.138;2023-05-01T11:25:45;4.87;;;3.17;;
12181;SDS011;6154;51.550;12.138;2023-05-01T11:28:18;5.95;;;3.67;;
12181;SDS011;6154;51.550;12.138;2023-05-01T11:30:48;5.95;;;3.22;;
12181;SDS011;6154;51.550;12.138;2023-05-01T11:33:23;7.00;;;3.65;;
12181;SDS011;6154;51.550;12.138;2023-05-01T11:35:57;3.58;;;3.28;;
12181;SDS011;6154;51.550;12.138;2023-05-01T11:38:29;5.03;;;3.12;;
12181;SDS011;6154;51.550;12.138;2023-05-01T11:40:58;7.57;;;3.40;;
12181;SDS011;6154;51.550;12.138;2023-05-01T11:43:27;3.97;;;3.03;;
12181;SDS011;6154;51.550;12.138;2023-05-01T11:45:56;4.25;;;3.12;;
12181;SDS011;6154;51.550;12.138;2023-05-01T11:48:29;5.50;;;3.22;;
12181;SDS011;6154;51.550;12.138;2023-05-01T11:50:59;3.85;;;3.03;;
12181;SDS011;6154;51.550;12.138;2023-05-01T11:53:28;3.92;;;2.97;;
12181;SDS011;6154;51.550;12.138;2023-05-01T11:55:56;6.97;;;3.10;;
12181;SDS011;6154;51.550;12.138;2023-05-01T11:58:32;4.37;;;2.85;;
12181;SDS011;6154;51.550;12.138;2023-05-01T12:01:02;4.00;;;2.80;;
12181;SDS011;6154;51.550;12.138;2023-05-01T12:03:39;4.70;;;2.95;;
12181;SDS011;6154;51.550;12.138;2023-05-01T12:06:10;3.12;;;2.33;;
12181;SDS011;6154;51.550;12.138;2023-05-01T12:08:43;3.70;;;2.70;;
12181;SDS011;6154;51.550;12.138;2023-05-01T12:11:16;4.50;;;2.22;;
12181;SDS011;6154;51.550;12.138;2023-05-01T12:13:46;4.28;;;2.60;;
12181;SDS011;6154;51.550;12.138;2023-05-01T12:16:15;5.25;;;2.72;;
12181;SDS011;6154;51.550;12.138;2023-05-01T12:18:44;3.28;;;2.30;;
12181;SDS011;6154;51.550;12.138;2023-05-01T12:21:15;4.37;;;2.10;;
12181;SDS011;6154;51.550;12.138;2023-05-01T12:23:44;3.28;;;2.25;;
12181;SDS011;6154;51.550;12.138;2023-05-01T12:26:16;4.35;;;1.95;;
12181;SDS011;6154;51.550;12.138;2023-05-01T12:28:52;4.72;;;2.33;;
12181;SDS011;6154;51.550;12.138;2023-05-01T12:31:20;3.17;;;2.42;;
12181;SDS011;6154;51.550;12.138;2023-05-01T12:33:53;4.07;;;2.62;;
12181;SDS011;6154;51.550;12.138;2023-05-01T12:36:23;4.03;;;2.15;;
12181;SDS011;6154;51.550;12.138;2023-05-01T12:38:54;3.10;;;2.30;;
12181;SDS011;6154;51.550;12.138;2023-05-01T12:41:37;2.55;;;2.17;;
12181;SDS011;6154;51.550;12.138;2023-05-01T12:44:19;5.43;;;2.20;;
12181;SDS011;6154;51.550;12.138;2023-05-01T12:46:52;3.75;;;2.40;;
12181;SDS011;6154;51.550;12.138;2023-05-01T12:49:23;4.05;;;2.37;;
12181;SDS011;6154;51.550;12.138;2023-05-01T12:51:53;3.20;;;1.85;;
12181;SDS011;6154;51.550;12.138;2023-05-01T12:54:22;6.53;;;1.90;;
12181;SDS011;6154;51.550;12.138;2023-05-01T12:56:52;2.75;;;2.03;;
12181;SDS011;6154;51.550;12.138;2023-05-01T12:59:31;4.30;;;2.30;;
12181;SDS011;6154;51.550;12.138;2023-05-01T13:02:01;4.03;;;2.03;;
12181;SDS011;6154;51.550;12.138;2023-05-01T13:04:31;3.00;;;2.12;;
12181;SDS011;6154;51.550;12.138;2023-05-01T13:07:08;5.80;;;2.60;;
12181;SDS011;6154;51.550;12.138;2023-05-01T13:09:38;2.67;;;2.15;;
12181;SDS011;6154;51.550;12.138;2023-05-01T13:12:06;3.50;;;2.33;;
12181;SDS011;6154;51.550;12.138;2023-05-01T13:14:36;3.17;;;2.45;;
12181;SDS011;6154;51.550;12.138;2023-05-01T13:17:05;4.78;;;2.55;;
12181;SDS011;6154;51.550;12.138;2023-05-01T13:19:35;2.65;;;2.22;;
12181;SDS011;6154;51.550;12.138;2023-05-01T13:22:05;5.72;;;2.42;;
12181;SDS011;6154;51.550;12.138;2023-05-01T13:24:34;3.28;;;2.08;;
12181;SDS011;6154;51.550;12.138;2023-05-01T13:27:03;3.42;;;2.47;;
12181;SDS011;6154;51.550;12.138;2023-05-01T13:29:33;2.55;;;2.25;;
12181;SDS011;6154;51.550;12.138;2023-05-01T13:32:02;3.67;;;2.50;;
12181;SDS011;6154;51.550;12.138;2023-05-01T13:34:32;4.75;;;1.98;;
12181;SDS011;6154;51.550;12.138;2023-05-01T13:37:03;3.10;;;2.20;;
12181;SDS011;6154;51.550;12.138;2023-05-01T13:39:32;4.35;;;2.33;;
12181;SDS011;6154;51.550;12.138;2023-05-01T13:42:01;4.18;;;2.03;;
12181;SDS011;6154;51.550;12.138;2023-05-01T13:44:32;2.92;;;1.98;;
12181;SDS011;6154;51.550;12.138;2023-05-01T13:47:01;4.03;;;2.40;;
12181;SDS011;6154;51.550;12.138;2023-05-01T13:49:32;3.22;;;2.28;;
12181;SDS011;6154;51.550;12.138;2023-05-01T13:52:17;3.10;;;1.73;;
12181;SDS011;6154;51.550;12.138;2023-05-01T13:54:48;2.75;;;2.08;;
12181;SDS011;6154;51.550;12.138;2023-05-01T13:57:22;5.15;;;2.42;;
12181;SDS011;6154;51.550;12.138;2023-05-01T13:59:50;2.58;;;2.00;;
12181;SDS011;6154;51.550;12.138;2023-05-01T14:02:19;4.35;;;2.42;;
12181;SDS011;6154;51.550;12.138;2023-05-01T14:04:52;3.20;;;1.92;;
12181;SDS011;6154;51.550;12.138;2023-05-01T14:07:21;3.35;;;2.20;;
12181;SDS011;6154;51.550;12.138;2023-05-01T14:09:52;3.33;;;1.92;;
12181;SDS011;6154;51.550;12.138;2023-05-01T14:12:23;2.53;;;2.30;;
12181;SDS011;6154;51.550;12.138;2023-05-01T14:14:56;1.98;;;1.75;;
12181;SDS011;6154;51.550;12.138;2023-05-01T14:17:31;4.57;;;2.03;;
12181;SDS011;6154;51.550;12.138;2023-05-01T14:20:01;2.20;;;1.90;;
12181;SDS011;6154;51.550;12.138;2023-05-01T14:22:33;2.60;;;2.10;;
12181;SDS011;6154;51.550;12.138;2023-05-01T14:25:15;4.30;;;2.22;;
12181;SDS011;6154;51.550;12.138;2023-05-01T14:27:50;2.35;;;1.90;;
12181;SDS011;6154;51.550;12.138;2023-05-01T14:30:23;2.20;;;2.00;;
12181;SDS011;6154;51.550;12.138;2023-05-01T14:32:54;3.90;;;1.95;;
12181;SDS011;6154;51.550;12.138;2023-05-01T14:35:23;4.60;;;2.35;;
12181;SDS011;6154;51.550;12.138;2023-05-01T14:37:51;4.28;;;1.65;;
12181;SDS011;6154;51.550;12.138;2023-05-01T14:40:24;2.90;;;2.10;;
12181;SDS011;6154;51.550;12.138;2023-05-01T14:42:53;4.10;;;2.10;;
12181;SDS011;6154;51.550;12.138;2023-05-01T14:45:24;3.33;;;2.08;;
12181;SDS011;6154;51.550;12.138;2023-05-01T14:47:52;4.62;;;2.22;;
12181;SDS011;6154;51.550;12.138;2023-05-01T14:50:21;2.72;;;2.05;;
12181;SDS011;6154;51.550;12.138;2023-05-01T14:52:57;3.90;;;2.08;;
12181;SDS011;6154;51.550;12.138;2023-05-01T14:55:28;6.47;;;2.40;;
12181;SDS011;6154;51.550;12.138;2023-05-01T14:58:00;2.72;;;2.03;;
12181;SDS011;6154;51.550;12.138;2023-05-01T15:00:29;2.67;;;1.80;;
12181;SDS011;6154;51.550;12.138;2023-05-01T15:02:57;3.90;;;2.05;;
12181;SDS011;6154;51.550;12.138;2023-05-01T15:05:26;3.95;;;2.10;;
12181;SDS011;6154;51.550;12.138;2023-05-01T15:07:54;2.45;;;1.92;;
12181;SDS011;6154;51.550;12.138;2023-05-01T15:10:23;4.15;;;1.92;;
12181;SDS011;6154;51.550;12.138;2023-05-01T15:12:53;2.45;;;1.80;;
12181;SDS011;6154;51.550;12.138;2023-05-01T15:15:21;3.58;;;2.08;;
12181;SDS011;6154;51.550;12.138;2023-05-01T15:17:49;3.53;;;1.92;;
12181;SDS011;6154;51.550;12.138;2023-05-01T15:20:17;2.28;;;1.87;;
12181;SDS011;6154;51.550;12.138;2023-05-01T15:22:45;4.15;;;2.00;;
12181;SDS011;6154;51.550;12.138;2023-05-01T15:25:14;2.15;;;1.75;;